createdAt,value
2023-03-25T00:00:20.786Z,98751.31
2023-03-25T00:02:52.578Z,98756.22
2023-03-25T00:05:20.818Z,98760.56
2023-03-25T00:07:50.614Z,98756.44
2023-03-25T00:10:18.261Z,98758.13
2023-03-25T00:12:45.705Z,98749.13
2023-03-25T00:15:13.669Z,98751.00
2023-03-25T00:17:42.500Z,98761.91
2023-03-25T00:20:10.322Z,98761.09
2023-03-25T00:22:41.303Z,98760.25
2023-03-25T00:25:17.575Z,98763.81
2023-03-25T00:27:46.889Z,98760.25
2023-03-25T00:30:15.708Z,98770.34
2023-03-25T00:32:45.999Z,98767.06
2023-03-25T00:35:19.796Z,98757.25
2023-03-25T00:37:57.287Z,98759.72
2023-03-25T00:40:25.906Z,98752.84
2023-03-25T00:42:53.380Z,98763.75
2023-03-25T00:45:20.822Z,98764.56
2023-03-25T00:47:48.644Z,98756.66
2023-03-25T00:50:16.152Z,98760.47
2023-03-25T00:52:43.619Z,98762.94
2023-03-25T00:55:11.474Z,98762.94
2023-03-25T00:57:38.963Z,98759.37
2023-03-25T01:00:08.527Z,98758.56
2023-03-25T01:02:36.482Z,98760.47
2023-03-25T01:05:04.631Z,98755.84
2023-03-25T01:07:32.416Z,98759.66
2023-03-25T01:10:00.251Z,98760.75
2023-03-25T01:12:28.045Z,98758.50
2023-03-25T01:14:55.562Z,98771.88
2023-03-25T01:17:23.359Z,98765.06
2023-03-25T01:19:51.243Z,98766.97
2023-03-25T01:22:18.747Z,98766.97
2023-03-25T01:24:46.566Z,98767.78
2023-03-25T01:27:14.186Z,98772.41
2023-03-25T01:29:41.726Z,98777.00
2023-03-25T01:32:09.425Z,98778.69
2023-03-25T01:34:38.724Z,98783.31
2023-03-25T01:37:06.486Z,98783.53
2023-03-25T01:39:34.428Z,98782.47
2023-03-25T01:42:01.896Z,98785.19
2023-03-25T01:44:29.279Z,98795.25
2023-03-25T01:46:58.664Z,98788.16
2023-03-25T01:49:30.353Z,98797.44
2023-03-25T01:52:29.793Z,98783.81
2023-03-25T01:54:57.355Z,98794.97
2023-03-25T01:57:25.922Z,98793.06
2023-03-25T01:59:54.083Z,98789.53
2023-03-25T02:02:21.565Z,98798.53
2023-03-25T02:04:59.205Z,98801.25
2023-03-25T02:07:32.682Z,98805.03
2023-03-25T02:10:02.356Z,98799.56
2023-03-25T02:12:30.364Z,98797.94
2023-03-25T02:14:58.020Z,98805.03
2023-03-25T02:17:50.441Z,98793.56
2023-03-25T02:20:42.739Z,98795.19
2023-03-25T02:23:48.361Z,98790.84
2023-03-25T02:26:42.503Z,98793.56
2023-03-25T02:29:28.980Z,98789.19
2023-03-25T02:32:18.562Z,98786.72
2023-03-25T02:35:02.268Z,98776.06
2023-03-25T02:37:53.357Z,98776.91
2023-03-25T02:40:32.268Z,98780.69
2023-03-25T02:43:26.822Z,98776.06
2023-03-25T02:45:56.208Z,98766.00
2023-03-25T02:48:27.731Z,98767.09
2023-03-25T02:50:56.376Z,98769.81
2023-03-25T02:53:30.487Z,98763.28
2023-03-25T02:56:05.154Z,98766.00
2023-03-25T02:58:33.018Z,98775.25
2023-03-25T03:01:00.555Z,98776.06
2023-03-25T03:03:28.284Z,98775.25
2023-03-25T03:05:59.306Z,98780.97
2023-03-25T03:08:51.747Z,98775.75
2023-03-25T03:11:41.204Z,98771.72
2023-03-25T03:14:14.572Z,98774.13
2023-03-25T03:17:04.110Z,98774.44
2023-03-25T03:19:55.636Z,98785.34
2023-03-25T03:22:43.464Z,98784.50
2023-03-25T03:25:23.033Z,98790.47
2023-03-25T03:28:24.730Z,98789.37
2023-03-25T03:31:09.392Z,98785.59
2023-03-25T03:33:39.109Z,98793.19
2023-03-25T03:36:15.324Z,98783.63
2023-03-25T03:38:50.698Z,98791.28
2023-03-25T03:41:22.122Z,98796.72
2023-03-25T03:44:19.983Z,98793.44
2023-03-25T03:47:07.557Z,98803.00
2023-03-25T03:49:55.694Z,98804.91
2023-03-25T03:52:30.480Z,98810.34
2023-03-25T03:54:59.399Z,98807.06
2023-03-25T03:57:30.160Z,98813.59
2023-03-25T04:00:06.808Z,98824.50
2023-03-25T04:02:48.885Z,98822.81
2023-03-25T04:05:17.851Z,98826.97
2023-03-25T04:07:57.011Z,98829.94
2023-03-25T04:10:39.430Z,98829.94
2023-03-25T04:13:10.729Z,98832.41
2023-03-25T04:15:38.473Z,98827.47
2023-03-25T04:18:05.894Z,98836.44
2023-03-25T04:20:36.765Z,98844.88
2023-03-25T04:23:09.912Z,98840.25
2023-03-25T04:25:37.409Z,98844.63
2023-03-25T04:28:05.652Z,98841.91
2023-03-25T04:30:33.077Z,98836.44
2023-03-25T04:33:01.235Z,98841.91
2023-03-25T04:35:28.968Z,98845.69
2023-03-25T04:37:57.502Z,98860.16
2023-03-25T04:40:25.921Z,98852.78
2023-03-25T04:42:53.716Z,98860.97
2023-03-25T04:45:21.730Z,98858.25
2023-03-25T04:47:49.466Z,98865.59
2023-03-25T04:50:24.379Z,98865.59
2023-03-25T04:52:53.060Z,98865.84
2023-03-25T04:55:21.494Z,98870.47
2023-03-25T04:57:50.779Z,98872.13
2023-03-25T05:00:22.762Z,98883.03
2023-03-25T05:02:54.581Z,98884.66
2023-03-25T05:05:23.585Z,98881.94
2023-03-25T05:07:53.228Z,98879.22
2023-03-25T05:10:22.208Z,98882.19
2023-03-25T05:12:49.779Z,98891.19
2023-03-25T05:15:17.571Z,98888.72
2023-03-25T05:17:45.363Z,98890.63
2023-03-25T05:20:13.641Z,98897.13
2023-03-25T05:22:42.097Z,98900.72
2023-03-25T05:25:10.067Z,98905.31
2023-03-25T05:27:37.829Z,98906.16
2023-03-25T05:30:06.788Z,98903.44
2023-03-25T05:32:34.306Z,98902.59
2023-03-25T05:35:02.583Z,98899.62
2023-03-25T05:37:30.801Z,98907.22
2023-03-25T05:39:58.329Z,98907.22
2023-03-25T05:42:25.848Z,98892.78
2023-03-25T05:44:53.737Z,98895.50
2023-03-25T05:47:23.375Z,98896.31
2023-03-25T05:49:51.918Z,98900.94
2023-03-25T05:52:19.990Z,98896.31
2023-03-25T05:54:51.800Z,98902.84
2023-03-25T05:57:19.285Z,98901.75
2023-03-25T05:59:48.045Z,98905.56
2023-03-25T06:02:16.086Z,98908.28
2023-03-25T06:04:43.921Z,98913.75
2023-03-25T06:07:19.712Z,98916.19
2023-03-25T06:09:47.961Z,98921.91
2023-03-25T06:12:16.754Z,98920.84
2023-03-25T06:14:45.916Z,98924.38
2023-03-25T06:17:15.417Z,98925.22
2023-03-25T06:19:42.853Z,98916.47
2023-03-25T06:22:11.079Z,98914.34
2023-03-25T06:24:39.175Z,98919.78
2023-03-25T06:27:16.458Z,98921.41
2023-03-25T06:29:44.268Z,98919.53
2023-03-25T06:32:12.542Z,98925.78
2023-03-25T06:34:42.510Z,98922.25
2023-03-25T06:37:10.492Z,98929.59
2023-03-25T06:39:38.173Z,98931.25
2023-03-25T06:42:07.364Z,98925.78
2023-03-25T06:44:36.296Z,98935.88
2023-03-25T06:47:06.668Z,98933.97
2023-03-25T06:49:34.865Z,98938.59
2023-03-25T06:52:02.309Z,98935.59
2023-03-25T06:54:29.770Z,98940.22
2023-03-25T06:56:57.946Z,98930.41
2023-03-25T06:59:25.558Z,98930.16
2023-03-25T07:01:53.085Z,98943.53
2023-03-25T07:04:24.076Z,98938.31
2023-03-25T07:06:52.023Z,98936.19
2023-03-25T07:09:19.481Z,98940.56
2023-03-25T07:11:47.398Z,98945.19
2023-03-25T07:14:14.942Z,98942.22
2023-03-25T07:16:42.483Z,98955.84
2023-03-25T07:19:10.443Z,98954.75
2023-03-25T07:21:37.897Z,98957.47
2023-03-25T07:24:05.628Z,98954.75
2023-03-25T07:26:33.361Z,98956.66
2023-03-25T07:29:00.784Z,98959.38
2023-03-25T07:31:28.275Z,98967.56
2023-03-25T07:33:56.118Z,98974.06
2023-03-25T07:36:25.267Z,98966.72
2023-03-25T07:38:54.816Z,98959.63
2023-03-25T07:41:24.297Z,98953.09
2023-03-25T07:43:52.574Z,98956.91
2023-03-25T07:46:20.461Z,98952.28
2023-03-25T07:48:48.264Z,98953.38
2023-03-25T07:51:15.832Z,98956.91
2023-03-25T07:53:45.228Z,98962.34
2023-03-25T07:56:13.255Z,98960.47
2023-03-25T07:58:42.003Z,98952.28
2023-03-25T08:01:09.541Z,98956.91
2023-03-25T08:03:39.857Z,98965.09
2023-03-25T08:06:08.043Z,98957.72
2023-03-25T08:08:35.755Z,98963.44
2023-03-25T08:11:03.477Z,98956.09
2023-03-25T08:13:31.056Z,98956.09
2023-03-25T08:15:58.534Z,98958.00
2023-03-25T08:18:31.638Z,98965.09
2023-03-25T08:20:59.112Z,98968.62
2023-03-25T08:23:26.908Z,98960.47
2023-03-25T08:25:54.689Z,98957.72
2023-03-25T08:28:23.042Z,98963.44
2023-03-25T08:30:55.002Z,98952.53
2023-03-25T08:33:27.629Z,98945.41
2023-03-25T08:35:57.330Z,98945.69
2023-03-25T08:38:25.492Z,98944.84
2023-03-25T08:40:53.035Z,98943.78
2023-03-25T08:43:20.775Z,98940.22
2023-03-25T08:45:48.326Z,98938.31
2023-03-25T08:48:15.897Z,98936.69
2023-03-25T08:50:43.689Z,98939.41
2023-03-25T08:53:11.148Z,98945.41
2023-03-25T08:55:38.587Z,98958.22
2023-03-25T08:58:08.138Z,98946.50
2023-03-25T09:00:37.673Z,98939.97
2023-03-25T09:03:05.292Z,98944.38
2023-03-25T09:05:33.114Z,98941.66
2023-03-25T09:08:00.857Z,98939.75
2023-03-25T09:10:28.305Z,98938.91
2023-03-25T09:12:56.283Z,98947.09
2023-03-25T09:15:23.863Z,98948.97
2023-03-25T09:17:51.316Z,98934.28
2023-03-25T09:20:19.022Z,98956.09
2023-03-25T09:22:46.503Z,98966.72
2023-03-25T09:25:14.142Z,98959.63
2023-03-25T09:27:41.923Z,98944.09
2023-03-25T09:30:09.619Z,98935.13
2023-03-25T09:32:37.155Z,98925.84
2023-03-25T09:35:05.224Z,98930.50
2023-03-25T09:37:32.644Z,98944.38
2023-03-25T09:40:00.128Z,98928.59
2023-03-25T09:43:01.483Z,98925.03
2023-03-25T09:45:41.103Z,98925.84
2023-03-25T09:48:30.756Z,98926.94
2023-03-25T09:51:00.335Z,98934.53
2023-03-25T09:53:40.616Z,98946.50
2023-03-25T09:56:11.914Z,98937.50
2023-03-25T09:58:46.690Z,98951.94
2023-03-25T10:01:27.209Z,98937.50
2023-03-25T10:04:02.645Z,98932.88
2023-03-25T10:06:31.340Z,98936.69
2023-03-25T10:09:14.199Z,98938.84
2023-03-25T10:11:44.527Z,98936.13
2023-03-25T10:14:18.475Z,98944.53
2023-03-25T10:17:16.461Z,98948.34
2023-03-25T10:20:02.095Z,98962.28
2023-03-25T10:22:32.485Z,98959.22
2023-03-25T10:25:01.266Z,98958.41
2023-03-25T10:27:35.995Z,98957.59
2023-03-25T10:30:09.831Z,98939.59
2023-03-25T10:32:39.161Z,98942.31
2023-03-25T10:35:11.574Z,98949.63
2023-03-25T10:37:42.063Z,98947.78
2023-03-25T10:40:27.442Z,98954.03
2023-03-25T10:43:30.324Z,98961.38
2023-03-25T10:46:08.138Z,98944.78
2023-03-25T10:48:35.774Z,98960.53
2023-03-25T10:51:14.679Z,98957.25
2023-03-25T10:53:42.124Z,98967.31
2023-03-25T10:56:15.459Z,98959.97
2023-03-25T10:58:43.946Z,98964.34
2023-03-25T11:01:17.895Z,98961.88
2023-03-25T11:03:46.308Z,98960.53
2023-03-25T11:06:26.639Z,98965.75
2023-03-25T11:09:23.596Z,98963.59
2023-03-25T11:11:52.403Z,98965.00
2023-03-25T11:14:22.977Z,98968.22
2023-03-25T11:17:15.389Z,98969.31
2023-03-25T11:19:50.312Z,98947.84
2023-03-25T11:22:28.907Z,98952.69
2023-03-25T11:25:21.323Z,98954.13
2023-03-25T11:27:54.408Z,98953.28
2023-03-25T11:30:22.879Z,98975.09
2023-03-25T11:33:14.711Z,98975.09
2023-03-25T11:35:44.184Z,98975.38
2023-03-25T11:38:23.164Z,98978.38
2023-03-25T11:40:55.089Z,98977.28
2023-03-25T11:43:23.873Z,98983.00
2023-03-25T11:45:51.697Z,98982.19
2023-03-25T11:48:20.968Z,98975.66
2023-03-25T11:50:56.196Z,98973.75
2023-03-25T11:53:25.302Z,98977.28
2023-03-25T11:55:59.098Z,98972.09
2023-03-25T11:58:29.033Z,98971.03
2023-03-25T12:01:27.744Z,98972.09
2023-03-25T12:04:11.700Z,98977.28
2023-03-25T12:06:52.829Z,98969.94
2023-03-25T12:09:20.596Z,98956.56
2023-03-25T12:11:56.908Z,98959.56
2023-03-25T12:14:40.803Z,98957.66
2023-03-25T12:17:16.876Z,98958.75
2023-03-25T12:20:23.648Z,98958.97
2023-03-25T12:23:00.138Z,98950.31
2023-03-25T12:25:39.618Z,98935.88
2023-03-25T12:28:25.600Z,98944.53
2023-03-25T12:31:30.775Z,98931.72
2023-03-25T12:34:29.948Z,98931.50
2023-03-25T12:37:19.833Z,98920.00
2023-03-25T12:39:52.144Z,98919.78
2023-03-25T12:42:22.825Z,98918.37
2023-03-25T12:45:09.234Z,98911.00
2023-03-25T12:47:43.759Z,98906.97
2023-03-25T12:50:33.728Z,98908.28
2023-03-25T12:53:34.066Z,98913.47
2023-03-25T12:56:14.237Z,98912.44
2023-03-25T12:59:09.529Z,98901.75
2023-03-25T13:01:58.417Z,98904.25
2023-03-25T13:04:51.734Z,98906.16
2023-03-25T13:07:34.418Z,98907.81
2023-03-25T13:10:18.225Z,98906.38
2023-03-25T13:12:55.537Z,98912.16
2023-03-25T13:15:27.546Z,98910.53
2023-03-25T13:18:04.002Z,98915.97
2023-03-25T13:20:33.712Z,98898.53
2023-03-25T13:23:02.430Z,98902.91
2023-03-25T13:25:33.817Z,98908.38
2023-03-25T13:28:04.146Z,98904.00
2023-03-25T13:30:37.565Z,98904.81
2023-03-25T13:33:13.774Z,98906.47
2023-03-25T13:35:47.608Z,98898.06
2023-03-25T13:38:33.545Z,98905.38
2023-03-25T13:41:46.401Z,98894.25
2023-03-25T13:44:20.592Z,98894.25
2023-03-25T13:47:31.012Z,98906.22
2023-03-25T13:50:14.691Z,98905.97
2023-03-25T13:52:44.310Z,98896.16
2023-03-25T13:55:17.387Z,98893.66
2023-03-25T13:58:17.443Z,98904.56
2023-03-25T14:01:12.590Z,98910.59
2023-03-25T14:04:01.932Z,98917.94
2023-03-25T14:06:44.798Z,98910.25
2023-03-25T14:09:37.984Z,98920.06
2023-03-25T14:12:10.108Z,98908.38
2023-03-25T14:14:49.513Z,98914.91
2023-03-25T14:17:16.968Z,98914.62
2023-03-25T14:19:49.207Z,98908.38
2023-03-25T14:22:18.229Z,98906.72
2023-03-25T14:24:46.063Z,98901.28
2023-03-25T14:27:30.108Z,98906.47
2023-03-25T14:30:00.889Z,98892.28
2023-03-25T14:32:41.086Z,98897.97
2023-03-25T14:35:34.424Z,98894.19
2023-03-25T14:38:07.937Z,98881.13
2023-03-25T14:40:44.904Z,98903.44
2023-03-25T14:43:38.229Z,98896.31
2023-03-25T14:46:13.256Z,98896.56
2023-03-25T14:48:51.990Z,98893.03
2023-03-25T14:51:23.459Z,98894.94
2023-03-25T14:53:54.672Z,98895.16
2023-03-25T14:56:24.761Z,98900.88
2023-03-25T14:58:53.903Z,98870.34
2023-03-25T15:01:22.028Z,98871.41
2023-03-25T15:03:50.854Z,98894.03
2023-03-25T15:06:20.409Z,98875.19
2023-03-25T15:08:55.702Z,98886.34
2023-03-25T15:11:28.389Z,98883.97
2023-03-25T15:13:58.015Z,98889.41
2023-03-25T15:16:31.489Z,98891.31
2023-03-25T15:19:01.883Z,98889.97
2023-03-25T15:21:34.470Z,98884.66
2023-03-25T15:24:08.925Z,98900.91
2023-03-25T15:26:40.824Z,98896.16
2023-03-25T15:29:22.077Z,98893.59
2023-03-25T15:31:49.453Z,98891.53
2023-03-25T15:34:26.646Z,98906.16
2023-03-25T15:37:45.031Z,98894.28
2023-03-25T15:40:19.259Z,98898.53
2023-03-25T15:42:55.520Z,98910.09
2023-03-25T15:45:27.629Z,98904.50
2023-03-25T15:48:08.844Z,98901.31
2023-03-25T15:50:41.047Z,98898.13
2023-03-25T15:53:59.348Z,98892.69
2023-03-25T15:56:31.866Z,98889.81
2023-03-25T15:59:03.305Z,98888.22
2023-03-25T16:01:32.944Z,98889.06
2023-03-25T16:04:19.047Z,98891.31
2023-03-25T16:06:47.964Z,98887.25
2023-03-25T16:09:19.557Z,98882.69
2023-03-25T16:11:47.073Z,98882.44
2023-03-25T16:14:16.196Z,98894.22
2023-03-25T16:16:48.244Z,98884.12
2023-03-25T16:19:18.465Z,98887.22
2023-03-25T16:21:50.544Z,98886.19
2023-03-25T16:24:20.777Z,98880.75
2023-03-25T16:26:50.029Z,98888.72
2023-03-25T16:29:20.853Z,98899.16
2023-03-25T16:31:56.527Z,98887.13
2023-03-25T16:34:24.261Z,98904.69
2023-03-25T16:36:52.672Z,98896.78
2023-03-25T16:39:21.638Z,98891.03
2023-03-25T16:41:50.316Z,98903.91
2023-03-25T16:44:20.621Z,98902.06
2023-03-25T16:46:48.333Z,98901.22
2023-03-25T16:49:22.325Z,98906.16
2023-03-25T16:51:51.546Z,98904.81
2023-03-25T16:54:28.557Z,98906.44
2023-03-25T16:56:56.729Z,98911.34
2023-03-25T16:59:28.631Z,98906.13
2023-03-25T17:01:57.932Z,98907.47
2023-03-25T17:04:46.750Z,98901.44
2023-03-25T17:07:21.123Z,98906.38
2023-03-25T17:09:52.498Z,98905.81
2023-03-25T17:12:22.445Z,98902.78
2023-03-25T17:14:51.152Z,98913.44
2023-03-25T17:17:41.583Z,98908.22
2023-03-25T17:20:18.032Z,98916.13
2023-03-25T17:23:01.274Z,98915.88
2023-03-25T17:25:53.107Z,98917.22
2023-03-25T17:28:40.445Z,98914.75
2023-03-25T17:31:36.891Z,98921.84
2023-03-25T17:34:12.056Z,98917.69
2023-03-25T17:36:46.147Z,98928.63
2023-03-25T17:39:20.016Z,98920.38
2023-03-25T17:41:48.107Z,98923.41
2023-03-25T17:44:18.327Z,98928.28
2023-03-25T17:46:47.350Z,98927.19
2023-03-25T17:49:18.679Z,98933.19
2023-03-25T17:51:46.945Z,98928.81
2023-03-25T17:54:15.013Z,98939.44
2023-03-25T17:56:43.103Z,98946.00
2023-03-25T17:59:19.367Z,98939.94
2023-03-25T18:01:47.614Z,98953.88
2023-03-25T18:04:16.207Z,98948.91
2023-03-25T18:06:44.617Z,98958.19
2023-03-25T18:09:15.867Z,98960.62
2023-03-25T18:11:47.663Z,98958.97
2023-03-25T18:14:15.751Z,98968.25
2023-03-25T18:16:43.987Z,98970.41
2023-03-25T18:19:26.288Z,98973.41
2023-03-25T18:21:55.617Z,98974.50
2023-03-25T18:24:24.024Z,98974.78
2023-03-25T18:26:51.747Z,98981.66
2023-03-25T18:29:22.087Z,98983.78
2023-03-25T18:31:50.433Z,98987.31
2023-03-25T18:34:19.687Z,98985.91
2023-03-25T18:36:49.652Z,98985.34
2023-03-25T18:39:21.275Z,98983.69
2023-03-25T18:41:49.632Z,98988.94
2023-03-25T18:44:18.391Z,98993.22
2023-03-25T18:46:47.150Z,99003.59
2023-03-25T18:49:18.080Z,99002.47
2023-03-25T18:51:49.992Z,99004.63
2023-03-25T18:54:17.857Z,99013.91
2023-03-25T18:56:47.351Z,99024.00
2023-03-25T18:59:19.416Z,99024.00
2023-03-25T19:01:50.493Z,99024.28
2023-03-25T19:04:19.238Z,99026.16
2023-03-25T19:06:48.655Z,99024.78
2023-03-25T19:09:22.971Z,99030.25
2023-03-25T19:11:51.897Z,99032.97
2023-03-25T19:14:20.658Z,99032.97
2023-03-25T19:17:01.243Z,99042.25
2023-03-25T19:19:34.776Z,99036.78
2023-03-25T19:22:03.483Z,99037.84
2023-03-25T19:24:32.367Z,99047.13
2023-03-25T19:27:00.864Z,99049.31
2023-03-25T19:29:29.674Z,99046.56
2023-03-25T19:31:59.851Z,99047.91
2023-03-25T19:34:28.394Z,99054.44
2023-03-25T19:37:03.187Z,99051.72
2023-03-25T19:39:32.576Z,99051.16
2023-03-25T19:42:01.400Z,99056.03
2023-03-25T19:44:31.470Z,99053.56
2023-03-25T19:46:59.853Z,99054.91
2023-03-25T19:49:39.182Z,99059.09
2023-03-25T19:52:08.907Z,99058.72
2023-03-25T19:54:37.774Z,99068.50
2023-03-25T19:57:09.716Z,99079.41
2023-03-25T19:59:38.543Z,99076.75
2023-03-25T20:02:07.671Z,99090.50
2023-03-25T20:04:38.197Z,99078.03
2023-03-25T20:07:06.982Z,99085.06
2023-03-25T20:09:36.201Z,99070.06
2023-03-25T20:12:05.429Z,99056.19
2023-03-25T20:14:34.135Z,99063.09
2023-03-25T20:17:04.837Z,99055.28
2023-03-25T20:19:34.623Z,99056.16
2023-03-25T20:22:12.193Z,99063.31
2023-03-25T20:24:51.035Z,99064.16
2023-03-25T20:27:19.744Z,99055.19
2023-03-25T20:29:49.931Z,99051.66
2023-03-25T20:32:21.365Z,99061.53
2023-03-25T20:34:50.484Z,99053.59
2023-03-25T20:37:19.056Z,99063.22
2023-03-25T20:39:47.900Z,99065.13
2023-03-25T20:42:19.053Z,99070.31
2023-03-25T20:44:47.779Z,99085.63
2023-03-25T20:47:16.571Z,99090.28
2023-03-25T20:49:46.327Z,99087.81
2023-03-25T20:52:14.622Z,99085.09
2023-03-25T20:54:42.858Z,99082.34
2023-03-25T20:57:11.163Z,99098.22
2023-03-25T20:59:39.041Z,99086.69
2023-03-25T21:02:07.151Z,99089.69
2023-03-25T21:04:37.258Z,99085.31
2023-03-25T21:07:05.229Z,99085.81
2023-03-25T21:09:33.204Z,99101.50
2023-03-25T21:12:03.096Z,99096.75
2023-03-25T21:14:31.420Z,99092.91
2023-03-25T21:16:58.982Z,99091.25
2023-03-25T21:19:30.695Z,99097.81
2023-03-25T21:21:59.274Z,99085.47
2023-03-25T21:24:31.863Z,99095.59
2023-03-25T21:26:59.525Z,99088.72
2023-03-25T21:29:27.461Z,99101.84
2023-03-25T21:31:55.364Z,99101.25
2023-03-25T21:34:23.115Z,99107.00
2023-03-25T21:36:51.260Z,99110.22
2023-03-25T21:39:19.546Z,99104.47
2023-03-25T21:41:47.105Z,99108.47
2023-03-25T21:44:16.465Z,99107.31
2023-03-25T21:46:43.958Z,99110.59
2023-03-25T21:49:14.332Z,99101.81
2023-03-25T21:51:56.727Z,99097.72
2023-03-25T21:54:24.602Z,99098.22
2023-03-25T21:56:54.808Z,99093.03
2023-03-25T21:59:22.725Z,99090.53
2023-03-25T22:01:53.017Z,99094.59
2023-03-25T22:04:21.009Z,99092.13
2023-03-25T22:06:48.582Z,99095.94
2023-03-25T22:09:16.008Z,99097.28
2023-03-25T22:11:43.877Z,99100.25
2023-03-25T22:14:11.560Z,99102.44
2023-03-25T22:16:39.133Z,99099.97
2023-03-25T22:19:07.065Z,99104.03
2023-03-25T22:21:36.976Z,99111.41
2023-03-25T22:24:05.367Z,99108.94
2023-03-25T22:26:33.567Z,99098.84
2023-03-25T22:29:02.268Z,99102.88
2023-03-25T22:31:31.213Z,99105.06
2023-03-25T22:34:10.755Z,99104.25
2023-03-25T22:36:40.307Z,99106.38
2023-03-25T22:39:08.090Z,99102.00
2023-03-25T22:41:35.635Z,99096.53
2023-03-25T22:44:03.417Z,99104.41
2023-03-25T22:46:32.265Z,99105.25
2023-03-25T22:48:59.833Z,99108.50
2023-03-25T22:51:27.552Z,99117.75
2023-03-25T22:53:55.357Z,99109.00
2023-03-25T22:56:23.683Z,99111.13
2023-03-25T22:58:54.232Z,99118.50
2023-03-25T23:01:23.991Z,99129.69
2023-03-25T23:03:52.212Z,99126.13
2023-03-25T23:06:19.746Z,99120.94
2023-03-25T23:08:47.452Z,99127.47
2023-03-25T23:11:25.488Z,99127.72
2023-03-25T23:13:55.403Z,99135.91
2023-03-25T23:16:24.767Z,99140.81
2023-03-25T23:18:52.344Z,99144.59
2023-03-25T23:21:28.551Z,99149.25
2023-03-25T23:23:58.118Z,99146.75
2023-03-25T23:26:26.956Z,99141.78
2023-03-25T23:29:00.273Z,99135.50
2023-03-25T23:31:29.989Z,99141.22
2023-03-25T23:33:58.413Z,99146.94
2023-03-25T23:36:26.176Z,99137.91
2023-03-25T23:38:54.229Z,99145.53
2023-03-25T23:41:25.893Z,99150.97
2023-03-25T23:43:54.222Z,99149.06
2023-03-25T23:46:22.158Z,99148.25
2023-03-25T23:48:49.651Z,99149.34
2023-03-25T23:51:18.209Z,99146.00
2023-03-25T23:53:47.079Z,99146.00
2023-03-25T23:56:15.827Z,99135.38
2023-03-25T23:58:44.043Z,99135.62
